Newberg, OR

8:44 AM PST on December 22, 2014 (GMT -0800)
North Newberg | Change Station
CLOSE
Current Station
Personal Weather Station
Location: Newberg, OR
Elevation: 240 ft
Nearby Weather Stations
Active Advisory: Flood Warning Active Notice: Local Storm Report

Elev 240 ft 45.32 °N, 122.97 °W | Updated 6 seconds ago

Overcast
Overcast
50.4 °F
Feels Like 50.4 °F
N
0.0
Wind Variable Wind from SE
Gusts 1.0 mph

Today
High -- | Low -- °F
--% Chance of Precip.
Yesterday
High -- | Low -- °F
Precip. -- in
7:48 AM 4:32 PM
New Moon, 1% visible
Pressure 30.36 in
Visibility 8.0 miles
Clouds Mostly Cloudy 800 ft
Overcast 12000 ft
Dew Point 48 °F
Humidity 93%
Rainfall 0.11 in
Snow Depth Not available.
UV 0 out of 12
Pollen .20 out of 12
Air Quality Not available.
Flu Activity Not available.
METAR KUAO 221553Z AUTO 00000KT 8SM BKN008 OVC120 08/08 A3036 RMK AO2 SLP280 T00830078

More Conditions Fewer Conditions

Pressure 30.36 in
Visibility 8.0 miles
Clouds Mostly Cloudy 800 ft
Overcast 12000 ft
Dew Point 48 °F
Humidity 93%
Rainfall 0.11 in
Snow Depth Not available.
UV 0 out of 12
Pollen .20 out of 12
Air Quality Not available.
Flu Activity Not available.
METAR KUAO 221553Z AUTO 00000KT 8SM BKN008 OVC120 08/08 A3036 RMK AO2 SLP280 T00830078

More Conditions Fewer Conditions

10-Day Weather Forecast

Almanac

Astronomy

Dec. 22, 2014 Rise Set
Actual Time
Civil Twilight
Nautical Twilight
Astronomical Twilight
Moon
Length of Visible Light
Length of Day
Tomorrow will be .
, % of the Moon is Illuminated

Today's Extremes

State Highs State Lows

Community

WunderPhotos

Upload Photos

1,779,641 photos uploaded!

WunderBlogs® & News

Nearby

Air Quality

  Air Quality AQ Index Pollutant
Not available.

Snow Depth

Station Depth Elevation

Earthquake Activity

City Distance Mag. Time & Date
Minimum magnitude displayed is 2.5.

Coastal Water Temperatures

Place Temperature

Nearby Weather Stations